createdAt,value
2023-05-22T00:01:46.949Z,1057.97
2023-05-22T00:04:21.188Z,1060.22
2023-05-22T00:06:49.295Z,1052.03
2023-05-22T00:09:17.451Z,1057.60
2023-05-22T00:11:45.118Z,1067.00
2023-05-22T00:14:16.187Z,1067.55
2023-05-22T00:16:44.245Z,1074.25
2023-05-22T00:19:16.807Z,1073.20
2023-05-22T00:21:44.628Z,1073.43
2023-05-22T00:24:12.370Z,1070.45
2023-05-22T00:26:39.908Z,1063.82
2023-05-22T00:29:08.103Z,1074.85
2023-05-22T00:31:35.836Z,1076.00
2023-05-22T00:34:03.733Z,1082.40
2023-05-22T00:36:31.253Z,1079.13
2023-05-22T00:38:58.838Z,1078.13
2023-05-22T00:41:26.865Z,1080.63
2023-05-22T00:43:55.226Z,1063.17
2023-05-22T00:46:23.187Z,1072.38
2023-05-22T00:48:52.568Z,1072.60
2023-05-22T00:51:24.696Z,1073.47
2023-05-22T00:53:54.733Z,1083.22
2023-05-22T00:56:23.291Z,1078.88
2023-05-22T00:58:51.035Z,1079.28
2023-05-22T01:01:19.325Z,1078.57
2023-05-22T01:03:48.148Z,1083.05
2023-05-22T01:06:18.321Z,1079.53
2023-05-22T01:08:46.056Z,1081.90
2023-05-22T01:11:26.956Z,1085.85
2023-05-22T01:14:21.024Z,1084.80
2023-05-22T01:17:22.829Z,1080.78
2023-05-22T01:20:16.589Z,1079.75
2023-05-22T01:23:21.514Z,1081.53
2023-05-22T01:26:03.722Z,1084.68
2023-05-22T01:29:12.206Z,1086.60
2023-05-22T01:31:43.179Z,1087.15
2023-05-22T01:34:12.331Z,1080.70
2023-05-22T01:36:41.999Z,1079.70
2023-05-22T01:39:10.233Z,1076.05
2023-05-22T01:41:37.772Z,1078.82
2023-05-22T01:44:05.591Z,1077.75
2023-05-22T01:46:33.760Z,1077.47
2023-05-22T01:49:01.387Z,1076.87
2023-05-22T01:51:48.649Z,1077.68
2023-05-22T01:54:22.688Z,1068.55
2023-05-22T01:57:15.710Z,1068.60
2023-05-22T01:59:59.290Z,1070.03
2023-05-22T02:02:29.071Z,1074.37
2023-05-22T02:05:18.997Z,1072.07
2023-05-22T02:08:02.693Z,1074.00
2023-05-22T02:10:32.407Z,1076.13
2023-05-22T02:13:00.475Z,1076.60
2023-05-22T02:15:28.487Z,1074.13
2023-05-22T02:17:59.485Z,1073.43
2023-05-22T02:20:27.227Z,1068.13
2023-05-22T02:22:55.327Z,1069.07
2023-05-22T02:25:23.772Z,1067.23
2023-05-22T02:27:51.391Z,1067.03
2023-05-22T02:30:19.244Z,1064.78
2023-05-22T02:32:50.541Z,1064.03
2023-05-22T02:35:18.737Z,1059.25
2023-05-22T02:37:46.349Z,1058.85
2023-05-22T02:40:15.629Z,1056.57
2023-05-22T02:42:43.766Z,1056.22
2023-05-22T02:45:12.661Z,1053.78
2023-05-22T02:47:40.254Z,1051.43
2023-05-22T02:50:08.055Z,1054.07
2023-05-22T02:52:37.236Z,1052.60
2023-05-22T02:55:05.535Z,1050.17
2023-05-22T02:57:34.216Z,1049.80
2023-05-22T03:00:02.086Z,1048.28
2023-05-22T03:02:32.665Z,1047.38
2023-05-22T03:05:00.411Z,1046.85
2023-05-22T03:07:29.710Z,1046.63
2023-05-22T03:09:58.302Z,1050.82
2023-05-22T03:12:25.997Z,1045.20
2023-05-22T03:14:53.795Z,1045.45
2023-05-22T03:17:21.676Z,1047.97
2023-05-22T03:19:49.267Z,1049.90
2023-05-22T03:22:18.698Z,1047.90
2023-05-22T03:24:46.446Z,1048.72
2023-05-22T03:27:17.277Z,1049.30
2023-05-22T03:29:47.271Z,1049.57
2023-05-22T03:32:16.110Z,1049.78
2023-05-22T03:34:43.904Z,1050.55
2023-05-22T03:37:12.347Z,1045.33
2023-05-22T03:39:40.551Z,1046.38
2023-05-22T03:42:19.266Z,1039.87
2023-05-22T03:44:47.002Z,1039.75
2023-05-22T03:47:14.534Z,1039.55
2023-05-22T03:49:42.635Z,1038.00
2023-05-22T03:52:10.802Z,1037.35
2023-05-22T03:54:38.422Z,1036.32
2023-05-22T03:57:06.457Z,1038.90
2023-05-22T03:59:34.038Z,1039.43
2023-05-22T04:02:01.741Z,1037.55
2023-05-22T04:04:30.278Z,1035.90
2023-05-22T04:06:59.313Z,1034.95
2023-05-22T04:09:27.783Z,1038.72
2023-05-22T04:11:58.853Z,1034.70
2023-05-22T04:14:26.416Z,1036.95
2023-05-22T04:16:54.419Z,1040.80
2023-05-22T04:19:22.508Z,1041.22
2023-05-22T04:21:50.176Z,1043.50
2023-05-22T04:24:18.559Z,1047.25
2023-05-22T04:26:46.489Z,1047.63
2023-05-22T04:29:14.692Z,1045.97
2023-05-22T04:31:44.554Z,1044.97
2023-05-22T04:34:15.375Z,1046.00
2023-05-22T04:36:45.383Z,1048.10
2023-05-22T04:39:17.058Z,1049.13
2023-05-22T04:41:46.020Z,1050.75
2023-05-22T04:44:14.415Z,1051.07
2023-05-22T04:46:42.328Z,1055.35
2023-05-22T04:49:11.414Z,1060.22
2023-05-22T04:51:39.442Z,1060.37
2023-05-22T04:54:26.084Z,1062.85
2023-05-22T04:57:11.978Z,1059.25
2023-05-22T04:59:58.797Z,1063.60
2023-05-22T05:02:26.381Z,1068.85
2023-05-22T05:04:54.097Z,1073.43
2023-05-22T05:07:24.251Z,1073.05
2023-05-22T05:09:51.890Z,1077.38
2023-05-22T05:12:19.372Z,1079.63
2023-05-22T05:14:47.295Z,1081.38
2023-05-22T05:17:16.094Z,1083.60
2023-05-22T05:19:44.015Z,1087.60
2023-05-22T05:22:12.031Z,1087.55
2023-05-22T05:24:40.038Z,1091.07
2023-05-22T05:27:07.842Z,1094.40
2023-05-22T05:29:36.953Z,1096.88
2023-05-22T05:32:13.000Z,1098.53
2023-05-22T05:35:00.905Z,1098.72
2023-05-22T05:37:43.610Z,1103.23
2023-05-22T05:40:12.618Z,1105.90
2023-05-22T05:42:45.470Z,1112.28
2023-05-22T05:45:14.936Z,1108.07
2023-05-22T05:47:43.781Z,1115.10
2023-05-22T05:50:12.691Z,1119.65
2023-05-22T05:52:40.471Z,1126.00
2023-05-22T05:55:12.408Z,1128.80
2023-05-22T05:57:41.738Z,1134.10
2023-05-22T06:00:14.411Z,1140.03
2023-05-22T06:02:43.045Z,1143.70
2023-05-22T06:05:29.425Z,1137.77
2023-05-22T06:08:08.666Z,1138.30
2023-05-22T06:10:37.515Z,1143.32
2023-05-22T06:13:14.240Z,1146.53
2023-05-22T06:15:42.015Z,1148.55
2023-05-22T06:18:09.938Z,1149.20
2023-05-22T06:20:39.780Z,1150.78
2023-05-22T06:23:08.581Z,1157.28
2023-05-22T06:25:37.523Z,1159.27
2023-05-22T06:28:06.111Z,1162.28
2023-05-22T06:30:40.090Z,1161.40
2023-05-22T06:33:12.506Z,1169.60
2023-05-22T06:35:42.274Z,1173.47
2023-05-22T06:38:10.772Z,1176.40
2023-05-22T06:40:40.522Z,1180.43
2023-05-22T06:43:14.524Z,1183.10
2023-05-22T06:45:50.583Z,1184.93
2023-05-22T06:48:24.247Z,1187.20
2023-05-22T06:51:06.953Z,1181.13
2023-05-22T06:53:35.685Z,1178.28
2023-05-22T06:56:03.398Z,1183.53
2023-05-22T06:58:49.449Z,1185.43
2023-05-22T07:01:17.538Z,1184.05
2023-05-22T07:03:58.407Z,1187.18
2023-05-22T07:06:41.733Z,1183.65
2023-05-22T07:09:11.351Z,1188.90
2023-05-22T07:11:39.572Z,1182.83
2023-05-22T07:14:08.061Z,1187.93
2023-05-22T07:16:37.065Z,1188.18
2023-05-22T07:19:06.686Z,1186.63
2023-05-22T07:21:38.086Z,1187.88
2023-05-22T07:24:09.949Z,1190.07
2023-05-22T07:26:46.702Z,1192.50
2023-05-22T07:29:15.413Z,1189.37
2023-05-22T07:31:45.166Z,1183.65
2023-05-22T07:34:12.701Z,1182.63
2023-05-22T07:36:40.941Z,1182.25
2023-05-22T07:39:09.756Z,1180.22
2023-05-22T07:41:41.128Z,1181.78
2023-05-22T07:44:12.549Z,1179.82
2023-05-22T07:46:41.553Z,1178.90
2023-05-22T07:49:13.019Z,1175.97
2023-05-22T07:51:43.305Z,1179.40
2023-05-22T07:54:11.762Z,1180.05
2023-05-22T07:56:42.791Z,1180.47
2023-05-22T07:59:12.128Z,1181.30
2023-05-22T08:01:41.862Z,1181.78
2023-05-22T08:04:10.302Z,1184.97
2023-05-22T08:06:39.586Z,1187.13
2023-05-22T08:09:07.245Z,1187.20
2023-05-22T08:11:39.742Z,1182.07
2023-05-22T08:14:08.428Z,1185.35
2023-05-22T08:16:36.517Z,1182.47
2023-05-22T08:19:09.129Z,1186.35
2023-05-22T08:21:37.823Z,1191.70
2023-05-22T08:24:06.096Z,1190.63
2023-05-22T08:26:33.968Z,1187.30
2023-05-22T08:29:01.715Z,1183.75
2023-05-22T08:31:29.565Z,1185.45
2023-05-22T08:34:03.261Z,1186.18
2023-05-22T08:36:33.989Z,1187.38
2023-05-22T08:39:02.133Z,1186.72
2023-05-22T08:41:30.572Z,1188.10
2023-05-22T08:43:58.687Z,1195.18
2023-05-22T08:46:26.692Z,1188.30
2023-05-22T08:48:57.494Z,1189.53
2023-05-22T08:51:31.610Z,1190.95
2023-05-22T08:54:01.266Z,1188.75
2023-05-22T08:56:31.036Z,1194.28
2023-05-22T08:59:00.849Z,1196.90
2023-05-22T09:01:29.865Z,1198.15
2023-05-22T09:04:02.513Z,1200.85
2023-05-22T09:06:30.697Z,1200.35
2023-05-22T09:09:01.577Z,1196.35
2023-05-22T09:11:29.719Z,1198.47
2023-05-22T09:14:10.332Z,1204.35
2023-05-22T09:16:48.654Z,1198.35
2023-05-22T09:19:16.522Z,1198.55
2023-05-22T09:21:44.850Z,1201.07
2023-05-22T09:24:13.050Z,1210.30
2023-05-22T09:26:41.538Z,1214.60
2023-05-22T09:29:09.671Z,1213.50
2023-05-22T09:31:42.923Z,1213.35
2023-05-22T09:34:14.240Z,1215.90
2023-05-22T09:36:43.122Z,1217.30
2023-05-22T09:39:11.056Z,1221.00
2023-05-22T09:41:40.517Z,1225.25
2023-05-22T09:44:16.402Z,1224.53
2023-05-22T09:46:47.129Z,1224.85
2023-05-22T09:49:17.212Z,389.95
2023-05-22T09:51:48.546Z,534.10
2023-05-22T09:54:18.814Z,717.90
2023-05-22T09:56:50.153Z,712.70
2023-05-22T09:59:23.404Z,1232.25
2023-05-22T10:01:51.911Z,1211.17
2023-05-22T10:04:23.106Z,1162.40
2023-05-22T10:06:52.827Z,1052.65
2023-05-22T10:09:26.223Z,483.73
2023-05-22T10:11:57.389Z,413.02
2023-05-22T10:14:27.350Z,367.13
2023-05-22T10:17:02.068Z,103.82
2023-05-22T10:19:32.866Z,6.82
2023-05-22T10:22:02.073Z,7.55
2023-05-22T10:24:30.131Z,7.03
2023-05-22T10:26:58.389Z,910.47
2023-05-22T10:29:34.137Z,8.88
2023-05-22T10:32:13.497Z,1033.32
2023-05-22T10:35:18.306Z,10.43
2023-05-22T10:37:51.550Z,183.23
2023-05-22T10:40:30.496Z,11.30
2023-05-22T10:43:02.784Z,10.15
2023-05-22T10:45:34.489Z,9.55
2023-05-22T10:48:07.234Z,12.38
2023-05-22T10:50:36.207Z,7.07
2023-05-22T10:53:25.093Z,11.82
2023-05-22T10:55:55.327Z,356.08
2023-05-22T10:58:29.211Z,11.10
2023-05-22T11:01:17.754Z,276.85
2023-05-22T11:03:51.258Z,457.13
2023-05-22T11:06:41.286Z,373.00
2023-05-22T11:09:30.916Z,513.22
2023-05-22T11:12:25.076Z,269.73
2023-05-22T11:15:09.027Z,586.55
2023-05-22T11:17:39.745Z,377.60
2023-05-22T11:20:21.110Z,7.30
2023-05-22T11:23:01.135Z,226.30
2023-05-22T11:25:29.253Z,9.25
2023-05-22T11:27:58.425Z,7.03
2023-05-22T11:30:28.642Z,6.85
2023-05-22T11:32:59.262Z,12.43
2023-05-22T11:35:28.322Z,8.30
2023-05-22T11:37:57.017Z,9.85
2023-05-22T11:40:29.356Z,5.35
2023-05-22T11:42:57.054Z,6.70
2023-05-22T11:45:25.424Z,9.45
2023-05-22T11:47:53.602Z,5.80
2023-05-22T11:50:40.167Z,10.90
2023-05-22T11:53:09.895Z,13.23
2023-05-22T11:55:37.754Z,7.32
2023-05-22T11:58:06.314Z,9.45
2023-05-22T12:00:34.295Z,7.32
2023-05-22T12:03:02.017Z,7.60
2023-05-22T12:05:32.283Z,11.90
2023-05-22T12:08:00.643Z,6.28
2023-05-22T12:10:28.128Z,8.80
2023-05-22T12:12:55.765Z,10.20
2023-05-22T12:15:24.633Z,8.15
2023-05-22T12:17:55.472Z,9.68
2023-05-22T12:20:23.048Z,8.25
2023-05-22T12:22:50.706Z,6.40
2023-05-22T12:25:20.240Z,8.50
2023-05-22T12:27:48.416Z,10.63
2023-05-22T12:30:16.964Z,7.90
2023-05-22T12:32:49.782Z,8.57
2023-05-22T12:35:18.118Z,7.82
2023-05-22T12:37:50.407Z,5.93
2023-05-22T12:40:18.359Z,8.30
2023-05-22T12:42:49.605Z,9.15
2023-05-22T12:45:18.197Z,8.00
2023-05-22T12:47:46.411Z,7.75
2023-05-22T12:50:14.668Z,6.07
2023-05-22T12:52:42.185Z,6.38
2023-05-22T12:55:11.743Z,6.82
2023-05-22T12:57:39.573Z,7.68
2023-05-22T13:00:08.257Z,7.40
2023-05-22T13:02:36.382Z,7.50
2023-05-22T13:05:04.745Z,5.88
2023-05-22T13:07:33.529Z,4.95
2023-05-22T13:10:01.043Z,6.50
2023-05-22T13:12:28.583Z,7.22
2023-05-22T13:14:56.544Z,9.50
2023-05-22T13:17:24.505Z,9.10
2023-05-22T13:19:53.158Z,5.28
2023-05-22T13:22:21.589Z,6.22
2023-05-22T13:24:49.703Z,5.53
2023-05-22T13:27:18.533Z,5.80
2023-05-22T13:29:46.060Z,7.28
2023-05-22T13:32:14.040Z,8.82
2023-05-22T13:34:41.979Z,10.18
2023-05-22T13:37:10.421Z,7.43
2023-05-22T13:39:37.991Z,6.20
2023-05-22T13:42:07.543Z,7.00
2023-05-22T13:44:35.843Z,6.72
2023-05-22T13:47:04.015Z,4.85
2023-05-22T13:49:31.595Z,7.15
2023-05-22T13:51:59.458Z,7.65
2023-05-22T13:54:27.894Z,6.85
2023-05-22T13:56:57.744Z,6.10
2023-05-22T13:59:26.157Z,7.68
2023-05-22T14:01:54.256Z,7.13
2023-05-22T14:04:21.908Z,6.53
2023-05-22T14:06:49.541Z,7.80
2023-05-22T14:09:17.898Z,7.18
2023-05-22T14:11:45.794Z,6.82
2023-05-22T14:14:13.507Z,7.20
2023-05-22T14:16:41.527Z,10.80
2023-05-22T14:19:09.591Z,5.47
2023-05-22T14:21:37.479Z,7.25
2023-05-22T14:24:05.595Z,7.75
2023-05-22T14:26:33.601Z,9.40
2023-05-22T14:29:01.443Z,5.40
2023-05-22T14:31:29.454Z,5.95
2023-05-22T14:33:57.596Z,6.25
2023-05-22T14:36:25.145Z,7.40
2023-05-22T14:38:57.002Z,10.05
2023-05-22T14:41:24.940Z,8.60
2023-05-22T14:43:52.562Z,9.52
2023-05-22T14:46:20.124Z,8.90
2023-05-22T14:48:47.747Z,6.03
2023-05-22T14:51:15.333Z,7.90
2023-05-22T14:53:43.331Z,7.68
2023-05-22T14:56:11.381Z,7.97
2023-05-22T14:58:38.922Z,8.07
2023-05-22T15:01:06.989Z,6.95
2023-05-22T15:03:34.522Z,8.23
2023-05-22T15:06:02.165Z,8.43
2023-05-22T15:08:29.836Z,7.72
2023-05-22T15:10:57.543Z,9.07
2023-05-22T15:13:25.550Z,8.63
2023-05-22T15:15:53.581Z,9.05
2023-05-22T15:18:21.291Z,6.10
2023-05-22T15:20:49.394Z,6.32
2023-05-22T15:23:17.006Z,10.52
2023-05-22T15:25:45.145Z,6.03
2023-05-22T15:28:12.771Z,8.02
2023-05-22T15:30:41.973Z,11.43
2023-05-22T15:33:09.627Z,6.70
2023-05-22T15:35:37.282Z,9.27
2023-05-22T15:38:06.139Z,9.50
2023-05-22T15:40:34.220Z,11.73
2023-05-22T15:43:04.114Z,6.25
2023-05-22T15:45:31.884Z,6.40
2023-05-22T15:47:59.718Z,6.28
2023-05-22T15:50:27.228Z,7.07
2023-05-22T15:52:55.276Z,9.23
2023-05-22T15:55:22.867Z,6.97
2023-05-22T15:57:50.630Z,11.60
2023-05-22T16:00:18.971Z,12.65
2023-05-22T16:02:47.026Z,7.85
2023-05-22T16:05:15.164Z,5.32
2023-05-22T16:07:42.770Z,6.80
2023-05-22T16:10:11.075Z,10.20
2023-05-22T16:12:41.862Z,6.43
2023-05-22T16:15:10.519Z,6.78
2023-05-22T16:17:39.689Z,9.15
2023-05-22T16:20:08.628Z,6.97
2023-05-22T16:22:48.003Z,6.20
2023-05-22T16:25:17.642Z,5.30
2023-05-22T16:27:45.708Z,10.82
2023-05-22T16:30:16.972Z,10.70
2023-05-22T16:32:48.540Z,6.30
2023-05-22T16:35:16.468Z,10.43
2023-05-22T16:37:44.003Z,12.95
2023-05-22T16:40:12.389Z,6.88
2023-05-22T16:42:40.498Z,9.75
2023-05-22T16:45:08.488Z,5.93
2023-05-22T16:47:36.751Z,6.82
2023-05-22T16:50:05.023Z,8.30
2023-05-22T16:52:33.643Z,9.93
2023-05-22T16:55:01.737Z,9.73
2023-05-22T16:57:29.446Z,7.57
2023-05-22T16:59:58.048Z,7.68
2023-05-22T17:02:26.514Z,9.63
2023-05-22T17:04:54.578Z,6.88
2023-05-22T17:07:22.594Z,9.55
2023-05-22T17:09:50.783Z,9.50
2023-05-22T17:12:18.554Z,15.32
2023-05-22T17:14:46.130Z,13.32
2023-05-22T17:17:13.644Z,10.38
2023-05-22T17:19:41.870Z,125.60
2023-05-22T17:22:09.906Z,112.03
2023-05-22T17:24:38.479Z,186.85
2023-05-22T17:27:06.816Z,11.25
2023-05-22T17:29:34.856Z,189.55
2023-05-22T17:32:05.323Z,252.68
2023-05-22T17:34:33.438Z,350.92
2023-05-22T17:37:00.956Z,15.75
2023-05-22T17:39:28.719Z,9.85
2023-05-22T17:41:56.874Z,351.83
2023-05-22T17:44:25.910Z,11.87
2023-05-22T17:46:53.537Z,13.80
2023-05-22T17:49:21.471Z,12.48
2023-05-22T17:51:50.310Z,12.80
2023-05-22T17:54:17.982Z,14.02
2023-05-22T17:56:45.598Z,10.95
2023-05-22T17:59:13.583Z,8.85
2023-05-22T18:01:41.324Z,9.52
2023-05-22T18:04:08.918Z,9.63
2023-05-22T18:06:37.483Z,7.63
2023-05-22T18:09:07.710Z,10.40
2023-05-22T18:11:36.124Z,14.25
2023-05-22T18:14:04.501Z,15.10
2023-05-22T18:16:32.125Z,14.63
2023-05-22T18:18:59.785Z,13.23
2023-05-22T18:21:27.432Z,12.02
2023-05-22T18:23:55.706Z,11.30
2023-05-22T18:26:23.433Z,10.00
2023-05-22T18:28:51.518Z,14.52
2023-05-22T18:31:19.240Z,10.50
2023-05-22T18:33:47.396Z,10.98
2023-05-22T18:36:16.194Z,9.55
2023-05-22T18:38:44.676Z,12.13
2023-05-22T18:41:13.186Z,10.43
2023-05-22T18:43:41.371Z,9.02
2023-05-22T18:46:09.679Z,12.43
2023-05-22T18:48:37.808Z,15.93
2023-05-22T18:51:05.660Z,13.23
2023-05-22T18:53:33.676Z,14.10
2023-05-22T18:56:01.978Z,11.27
2023-05-22T18:58:30.135Z,13.60
2023-05-22T19:00:57.720Z,15.27
2023-05-22T19:03:25.418Z,20.65
2023-05-22T19:05:53.439Z,11.52
2023-05-22T19:08:21.636Z,11.82
2023-05-22T19:10:49.216Z,15.38
2023-05-22T19:13:17.420Z,10.93
2023-05-22T19:15:46.442Z,19.65
2023-05-22T19:18:14.065Z,19.13
2023-05-22T19:20:41.881Z,14.50
2023-05-22T19:23:11.649Z,16.23
2023-05-22T19:25:39.323Z,15.93
2023-05-22T19:28:07.253Z,14.90
2023-05-22T19:30:35.974Z,21.20
2023-05-22T19:33:04.162Z,16.50
2023-05-22T19:35:32.914Z,17.77
2023-05-22T19:38:01.344Z,22.90
2023-05-22T19:40:29.625Z,11.93
2023-05-22T19:42:58.271Z,20.75
2023-05-22T19:45:28.759Z,19.35
2023-05-22T19:47:56.336Z,20.05
2023-05-22T19:50:24.420Z,26.30
2023-05-22T19:52:52.009Z,93.35
2023-05-22T19:55:20.227Z,46.97
2023-05-22T19:57:47.916Z,155.75
2023-05-22T20:00:16.402Z,126.60
2023-05-22T20:02:44.000Z,161.50
2023-05-22T20:05:15.444Z,99.63
2023-05-22T20:07:43.591Z,89.20
2023-05-22T20:10:12.172Z,105.33
2023-05-22T20:12:40.801Z,302.55
2023-05-22T20:15:10.712Z,371.27
2023-05-22T20:17:38.564Z,260.98
2023-05-22T20:20:07.981Z,229.00
2023-05-22T20:22:36.281Z,233.07
2023-05-22T20:25:05.304Z,320.33
2023-05-22T20:27:33.364Z,288.40
2023-05-22T20:30:01.699Z,301.00
2023-05-22T20:32:30.294Z,543.35
2023-05-22T20:34:58.429Z,423.23
2023-05-22T20:37:26.628Z,466.37
2023-05-22T20:39:54.670Z,382.38
2023-05-22T20:42:22.969Z,348.33
2023-05-22T20:44:52.597Z,390.67
2023-05-22T20:47:20.583Z,776.20
2023-05-22T20:49:48.394Z,613.28
2023-05-22T20:52:16.082Z,603.22
2023-05-22T20:54:44.077Z,698.13
2023-05-22T20:57:12.082Z,746.47
2023-05-22T20:59:39.604Z,727.63
2023-05-22T21:02:08.436Z,686.25
2023-05-22T21:04:36.565Z,700.15
2023-05-22T21:07:04.993Z,698.63
2023-05-22T21:09:33.072Z,753.35
2023-05-22T21:12:01.693Z,822.08
2023-05-22T21:14:29.392Z,749.33
2023-05-22T21:16:56.981Z,681.60
2023-05-22T21:19:25.026Z,744.65
2023-05-22T21:21:52.836Z,897.58
2023-05-22T21:24:21.885Z,844.30
2023-05-22T21:26:50.124Z,742.60
2023-05-22T21:29:20.575Z,829.88
2023-05-22T21:31:48.610Z,769.92
2023-05-22T21:34:16.348Z,859.28
2023-05-22T21:36:44.475Z,772.63
2023-05-22T21:39:12.390Z,796.72
2023-05-22T21:41:40.162Z,941.25
2023-05-22T21:44:10.013Z,910.75
2023-05-22T21:46:38.152Z,1111.95
2023-05-22T21:49:07.414Z,1089.55
2023-05-22T21:51:35.632Z,1072.30
2023-05-22T21:54:03.756Z,1077.65
2023-05-22T21:56:31.628Z,1046.32
2023-05-22T21:58:59.733Z,1014.38
2023-05-22T22:01:27.594Z,1019.88
2023-05-22T22:03:55.220Z,1053.10
2023-05-22T22:06:23.221Z,1065.03
2023-05-22T22:08:53.246Z,1060.72
2023-05-22T22:11:21.370Z,1115.03
2023-05-22T22:13:48.896Z,1112.75
2023-05-22T22:16:17.582Z,1111.55
2023-05-22T22:18:45.113Z,1108.20
2023-05-22T22:21:13.748Z,1110.05
2023-05-22T22:23:42.364Z,1109.45
2023-05-22T22:26:12.199Z,1112.78
2023-05-22T22:28:39.718Z,1109.82
2023-05-22T22:31:07.137Z,1110.33
2023-05-22T22:33:34.553Z,1107.40
2023-05-22T22:36:02.998Z,1101.32
2023-05-22T22:38:35.127Z,1104.55
2023-05-22T22:41:04.802Z,1102.53
2023-05-22T22:43:32.620Z,1099.47
2023-05-22T22:46:00.737Z,1101.38
2023-05-22T22:48:28.839Z,1101.20
2023-05-22T22:50:56.496Z,1097.70
2023-05-22T22:53:24.439Z,1099.27
2023-05-22T22:55:56.820Z,1094.80
2023-05-22T22:58:24.613Z,1091.40
2023-05-22T23:00:52.561Z,1095.22
2023-05-22T23:03:20.722Z,1097.25
2023-05-22T23:05:49.553Z,1096.25
2023-05-22T23:08:17.228Z,1099.40
2023-05-22T23:10:44.845Z,1098.43
2023-05-22T23:13:12.450Z,1101.88
2023-05-22T23:15:40.658Z,1100.22
2023-05-22T23:18:08.415Z,1100.90
2023-05-22T23:20:36.004Z,1098.05
2023-05-22T23:23:03.606Z,1096.10
2023-05-22T23:25:31.176Z,1094.25
2023-05-22T23:27:58.855Z,1092.85
2023-05-22T23:30:26.524Z,1092.25
2023-05-22T23:32:54.048Z,1085.63
2023-05-22T23:35:21.776Z,1087.97
2023-05-22T23:37:49.712Z,1086.22
2023-05-22T23:40:17.842Z,1087.20
2023-05-22T23:42:45.336Z,1084.93
2023-05-22T23:45:13.056Z,1084.20
2023-05-22T23:47:40.761Z,1083.18
2023-05-22T23:50:08.776Z,1087.72
2023-05-22T23:52:36.701Z,1085.70
2023-05-22T23:55:04.603Z,1087.60
2023-05-22T23:57:32.601Z,1086.78
